createdAt,value
2023-05-14T00:00:06.604Z,11.90
2023-05-14T00:02:35.415Z,10.90
2023-05-14T00:05:03.937Z,13.27
2023-05-14T00:07:33.798Z,11.75
2023-05-14T00:10:02.296Z,16.25
2023-05-14T00:12:31.199Z,11.17
2023-05-14T00:14:59.872Z,12.45
2023-05-14T00:17:28.406Z,9.98
2023-05-14T00:19:57.106Z,11.98
2023-05-14T00:22:25.567Z,11.40
2023-05-14T00:24:55.614Z,10.80
2023-05-14T00:27:24.059Z,11.88
2023-05-14T00:29:52.684Z,12.18
2023-05-14T00:32:21.370Z,13.02
2023-05-14T00:34:50.259Z,13.27
2023-05-14T00:37:18.858Z,13.73
2023-05-14T00:39:47.305Z,12.85
2023-05-14T00:42:17.177Z,13.57
2023-05-14T00:44:45.828Z,11.95
2023-05-14T00:47:14.651Z,11.90
2023-05-14T00:49:44.189Z,11.60
2023-05-14T00:52:13.111Z,13.90
2023-05-14T00:54:41.982Z,13.45
2023-05-14T00:57:10.883Z,14.18
2023-05-14T00:59:42.869Z,13.85
2023-05-14T01:02:11.710Z,14.80
2023-05-14T01:04:44.220Z,15.40
2023-05-14T01:07:22.281Z,12.23
2023-05-14T01:09:56.697Z,12.60
2023-05-14T01:12:37.978Z,12.93
2023-05-14T01:15:13.842Z,15.27
2023-05-14T01:17:47.876Z,15.25
2023-05-14T01:20:17.724Z,14.38
2023-05-14T01:22:47.619Z,14.55
2023-05-14T01:25:16.077Z,13.75
2023-05-14T01:27:51.643Z,14.03
2023-05-14T01:30:24.940Z,14.15
2023-05-14T01:33:00.273Z,13.60
2023-05-14T01:35:31.094Z,13.38
2023-05-14T01:38:05.270Z,13.48
2023-05-14T01:40:34.654Z,12.57
2023-05-14T01:43:04.041Z,13.85
2023-05-14T01:45:34.332Z,12.55
2023-05-14T01:48:02.909Z,11.90
2023-05-14T01:50:31.472Z,13.65
2023-05-14T01:53:01.355Z,11.40
2023-05-14T01:55:30.142Z,11.35
2023-05-14T01:57:58.896Z,11.57
2023-05-14T02:00:27.915Z,11.18
2023-05-14T02:02:56.485Z,13.23
2023-05-14T02:05:25.086Z,14.13
2023-05-14T02:07:53.867Z,11.38
2023-05-14T02:10:23.960Z,11.98
2023-05-14T02:12:52.553Z,11.75
2023-05-14T02:15:21.004Z,10.68
2023-05-14T02:17:49.739Z,12.17
2023-05-14T02:20:18.425Z,12.90
2023-05-14T02:22:46.993Z,13.30
2023-05-14T02:25:15.918Z,14.18
2023-05-14T02:27:46.256Z,15.95
2023-05-14T02:30:15.186Z,13.07
2023-05-14T02:32:43.672Z,14.75
2023-05-14T02:35:12.180Z,14.75
2023-05-14T02:37:40.632Z,14.93
2023-05-14T02:40:10.899Z,15.13
2023-05-14T02:42:39.410Z,16.27
2023-05-14T02:45:10.511Z,16.15
2023-05-14T02:47:39.168Z,17.02
2023-05-14T02:50:09.654Z,16.98
2023-05-14T02:52:38.289Z,17.65
2023-05-14T02:55:08.011Z,19.43
2023-05-14T02:57:36.420Z,18.02
2023-05-14T03:02:56.877Z,19.08
2023-05-14T03:05:25.888Z,20.50
2023-05-14T03:07:55.225Z,17.60
2023-05-14T03:10:23.896Z,16.55
2023-05-14T03:12:52.872Z,15.80
2023-05-14T03:15:21.521Z,17.65
2023-05-14T03:17:50.272Z,17.88
2023-05-14T03:20:20.763Z,18.47
2023-05-14T03:22:49.215Z,17.92
2023-05-14T03:25:17.783Z,17.27
2023-05-14T03:27:46.325Z,17.92
2023-05-14T03:30:15.283Z,15.43
2023-05-14T03:32:44.033Z,15.87
2023-05-14T03:35:12.512Z,15.48
2023-05-14T03:37:42.622Z,15.45
2023-05-14T03:40:12.124Z,15.70
2023-05-14T03:42:40.548Z,15.52
2023-05-14T03:45:11.063Z,13.37
2023-05-14T03:47:39.584Z,14.98
2023-05-14T03:50:10.178Z,13.75
2023-05-14T03:52:39.442Z,13.63
2023-05-14T03:55:10.672Z,14.52
2023-05-14T03:57:39.164Z,13.03
2023-05-14T04:00:09.852Z,12.80
2023-05-14T04:02:38.314Z,12.63
2023-05-14T04:05:07.347Z,12.90
2023-05-14T04:07:36.053Z,11.20
2023-05-14T04:10:05.007Z,13.57
2023-05-14T04:12:35.045Z,10.43
2023-05-14T04:15:03.933Z,11.57
2023-05-14T04:17:34.508Z,10.75
2023-05-14T04:20:03.588Z,12.38
2023-05-14T04:22:32.335Z,12.00
2023-05-14T04:25:00.771Z,10.73
2023-05-14T04:27:30.225Z,10.52
2023-05-14T04:30:00.341Z,10.65
2023-05-14T04:32:28.842Z,10.45
2023-05-14T04:34:57.581Z,12.23
2023-05-14T04:37:26.160Z,10.63
2023-05-14T04:39:54.786Z,10.20
2023-05-14T04:42:23.215Z,11.55
2023-05-14T04:44:51.870Z,10.85
2023-05-14T04:47:22.503Z,11.40
2023-05-14T04:49:51.155Z,9.18
2023-05-14T04:52:19.806Z,9.30
2023-05-14T04:54:48.441Z,10.38
2023-05-14T04:57:17.318Z,11.65
2023-05-14T04:59:45.968Z,11.00
2023-05-14T05:02:14.400Z,10.68
2023-05-14T05:04:44.205Z,10.27
2023-05-14T05:07:13.321Z,11.93
2023-05-14T05:09:42.072Z,13.05
2023-05-14T05:12:11.114Z,11.03
2023-05-14T05:14:39.571Z,11.98
2023-05-14T05:17:08.245Z,12.77
2023-05-14T05:19:43.575Z,12.50
2023-05-14T05:22:13.838Z,15.48
2023-05-14T05:24:42.332Z,13.83
2023-05-14T05:27:10.746Z,13.90
2023-05-14T05:29:39.304Z,17.17
2023-05-14T05:32:09.179Z,14.70
2023-05-14T05:34:37.695Z,17.85
2023-05-14T05:37:06.336Z,17.50
2023-05-14T05:39:36.195Z,21.02
2023-05-14T05:42:04.991Z,19.25
2023-05-14T05:44:33.651Z,19.65
2023-05-14T05:47:02.141Z,19.02
2023-05-14T05:49:30.862Z,17.67
2023-05-14T05:51:59.515Z,18.20
2023-05-14T05:54:27.935Z,17.50
2023-05-14T05:56:57.727Z,18.67
2023-05-14T05:59:26.742Z,17.88
2023-05-14T06:01:55.614Z,18.27
2023-05-14T06:04:24.104Z,16.38
2023-05-14T06:06:52.546Z,19.67
2023-05-14T06:09:20.956Z,17.83
2023-05-14T06:11:49.371Z,18.20
2023-05-14T06:14:19.171Z,20.17
2023-05-14T06:16:47.672Z,19.02
2023-05-14T06:19:16.335Z,18.08
2023-05-14T06:21:44.990Z,18.05
2023-05-14T06:24:14.158Z,18.23
2023-05-14T06:26:42.788Z,15.63
2023-05-14T06:29:11.180Z,17.52
2023-05-14T06:31:41.049Z,18.15
2023-05-14T06:34:09.538Z,18.23
2023-05-14T06:36:38.259Z,16.02
2023-05-14T06:39:06.754Z,16.90
2023-05-14T06:41:35.176Z,18.52
2023-05-14T06:44:03.717Z,15.88
2023-05-14T06:46:32.368Z,16.33
2023-05-14T06:49:02.196Z,14.88
2023-05-14T06:51:30.977Z,13.77
2023-05-14T06:53:59.425Z,15.90
2023-05-14T06:56:27.954Z,14.35
2023-05-14T06:58:56.354Z,13.82
2023-05-14T07:01:24.841Z,13.70
2023-05-14T07:03:53.354Z,12.60
2023-05-14T07:06:23.597Z,14.05
2023-05-14T07:08:52.176Z,14.05
2023-05-14T07:11:20.609Z,12.02
2023-05-14T07:13:49.216Z,13.73
2023-05-14T07:16:17.730Z,13.80
2023-05-14T07:18:46.808Z,14.32
2023-05-14T07:21:15.508Z,13.82
2023-05-14T07:23:45.328Z,13.35
2023-05-14T07:26:14.213Z,13.98
2023-05-14T07:28:42.601Z,16.33
2023-05-14T07:31:11.516Z,15.45
2023-05-14T07:33:40.112Z,12.60
2023-05-14T07:36:09.343Z,13.68
2023-05-14T07:38:38.155Z,13.60
2023-05-14T07:41:08.814Z,13.50
2023-05-14T07:43:38.761Z,12.60
2023-05-14T07:46:07.491Z,11.10
2023-05-14T07:48:36.141Z,14.23
2023-05-14T07:51:04.684Z,12.63
2023-05-14T07:53:33.120Z,11.10
2023-05-14T07:56:01.852Z,11.35
2023-05-14T07:58:31.958Z,11.40
2023-05-14T08:01:02.236Z,11.48
2023-05-14T08:03:30.779Z,9.45
2023-05-14T08:05:59.307Z,8.50
2023-05-14T08:08:27.896Z,9.70
2023-05-14T08:10:56.435Z,8.63
2023-05-14T08:13:24.959Z,8.65
2023-05-14T08:15:54.785Z,10.40
2023-05-14T08:18:23.268Z,9.03
2023-05-14T08:20:51.795Z,9.05
2023-05-14T08:23:20.270Z,8.77
2023-05-14T08:25:48.679Z,9.20
2023-05-14T08:28:17.156Z,9.77
2023-05-14T08:30:45.954Z,7.63
2023-05-14T08:33:15.813Z,8.20
2023-05-14T08:35:44.355Z,9.02
2023-05-14T08:38:13.045Z,8.73
2023-05-14T08:40:41.597Z,9.38
2023-05-14T08:43:12.108Z,9.27
2023-05-14T08:45:41.886Z,8.95
2023-05-14T08:48:15.464Z,8.07
2023-05-14T08:50:44.251Z,9.38
2023-05-14T08:53:12.686Z,7.10
2023-05-14T08:55:41.500Z,8.37
2023-05-14T08:58:10.006Z,8.20
2023-05-14T09:00:38.443Z,8.50
2023-05-14T09:03:08.051Z,9.10
2023-05-14T09:05:38.839Z,7.72
2023-05-14T09:08:07.704Z,8.10
2023-05-14T09:10:36.162Z,8.50
2023-05-14T09:13:05.424Z,10.05
2023-05-14T09:15:36.309Z,10.48
2023-05-14T09:18:07.072Z,8.60
2023-05-14T09:20:37.160Z,9.27
2023-05-14T09:25:57.274Z,10.15
2023-05-14T09:28:28.163Z,8.75
2023-05-14T09:30:57.185Z,8.30
2023-05-14T09:33:29.289Z,8.03
2023-05-14T09:36:01.786Z,8.55
2023-05-14T09:38:31.335Z,8.60
2023-05-14T09:41:00.072Z,10.25
2023-05-14T09:43:28.530Z,8.25
2023-05-14T09:45:56.956Z,9.30
2023-05-14T09:48:26.195Z,9.82
2023-05-14T09:50:54.763Z,8.07
2023-05-14T09:53:24.562Z,7.40
2023-05-14T09:55:52.969Z,7.50
2023-05-14T09:58:21.500Z,7.37
2023-05-14T10:00:50.353Z,7.70
2023-05-14T10:03:21.839Z,7.20
2023-05-14T10:05:53.269Z,7.05
2023-05-14T10:08:28.036Z,6.75
2023-05-14T10:10:57.898Z,7.33
2023-05-14T10:13:41.508Z,7.32
2023-05-14T10:16:17.556Z,9.43
2023-05-14T10:18:52.926Z,6.45
2023-05-14T10:21:23.784Z,6.30
2023-05-14T10:23:54.194Z,6.63
2023-05-14T10:26:24.079Z,7.82
2023-05-14T10:28:52.814Z,6.72
2023-05-14T10:31:24.924Z,7.88
2023-05-14T10:33:54.724Z,6.53
2023-05-14T10:36:24.436Z,6.80
2023-05-14T10:38:58.587Z,8.75
2023-05-14T10:41:27.109Z,7.93
2023-05-14T10:43:58.832Z,6.80
2023-05-14T10:46:27.615Z,7.05
2023-05-14T10:48:56.169Z,7.77
2023-05-14T10:51:25.703Z,6.07
2023-05-14T10:53:54.551Z,10.00
2023-05-14T10:56:24.449Z,7.15
2023-05-14T10:58:53.218Z,6.32
2023-05-14T11:01:25.775Z,7.30
2023-05-14T11:03:56.039Z,7.15
2023-05-14T11:06:24.610Z,7.80
2023-05-14T11:08:53.707Z,7.07
2023-05-14T11:11:26.133Z,6.68
2023-05-14T11:13:55.535Z,7.40
2023-05-14T11:16:24.624Z,7.88
2023-05-14T11:19:03.483Z,6.72
2023-05-14T11:21:32.949Z,8.27
2023-05-14T11:24:02.278Z,9.63
2023-05-14T11:26:33.888Z,8.17
2023-05-14T11:29:02.477Z,7.53
2023-05-14T11:31:30.977Z,7.10
2023-05-14T11:34:00.163Z,6.82
2023-05-14T11:36:28.960Z,6.93
2023-05-14T11:38:57.411Z,6.00
2023-05-14T11:41:28.112Z,6.85
2023-05-14T11:43:58.148Z,5.95
2023-05-14T11:46:26.629Z,5.35
2023-05-14T11:48:55.102Z,7.45
2023-05-14T11:51:24.622Z,6.97
2023-05-14T11:53:53.018Z,5.68
2023-05-14T11:56:23.412Z,7.28
2023-05-14T11:58:58.912Z,6.40
2023-05-14T12:01:28.721Z,5.72
2023-05-14T12:03:57.276Z,5.47
2023-05-14T12:06:32.341Z,5.63
2023-05-14T12:09:01.615Z,6.15
2023-05-14T12:11:32.996Z,6.57
2023-05-14T12:14:03.341Z,5.50
2023-05-14T12:16:34.833Z,5.67
2023-05-14T12:19:04.850Z,6.05
2023-05-14T12:21:33.385Z,6.38
2023-05-14T12:24:02.289Z,6.30
2023-05-14T12:26:34.883Z,5.78
2023-05-14T12:29:07.148Z,6.37
2023-05-14T12:31:37.332Z,7.63
2023-05-14T12:34:06.018Z,5.82
2023-05-14T12:36:34.451Z,5.53
2023-05-14T12:39:06.047Z,5.50
2023-05-14T12:41:35.024Z,6.40
2023-05-14T12:44:06.273Z,6.45
2023-05-14T12:46:35.358Z,5.32
2023-05-14T12:49:03.921Z,5.70
2023-05-14T12:51:32.605Z,5.07
2023-05-14T12:54:01.040Z,4.30
2023-05-14T12:56:31.648Z,4.70
2023-05-14T12:59:00.326Z,4.47
2023-05-14T13:01:30.172Z,4.90
2023-05-14T13:03:59.879Z,5.10
2023-05-14T13:06:28.344Z,5.43
2023-05-14T13:08:56.828Z,5.90
2023-05-14T13:11:25.771Z,4.80
2023-05-14T13:13:54.202Z,5.93
2023-05-14T13:16:22.707Z,6.05
2023-05-14T13:18:52.670Z,4.47
2023-05-14T13:21:21.306Z,5.30
2023-05-14T13:23:50.008Z,4.70
2023-05-14T13:26:18.574Z,6.53
2023-05-14T13:28:47.401Z,4.05
2023-05-14T13:31:16.116Z,3.87
2023-05-14T13:33:46.010Z,4.40
2023-05-14T13:36:16.541Z,4.68
2023-05-14T13:38:45.899Z,5.47
2023-05-14T13:41:14.351Z,5.57
2023-05-14T13:43:42.790Z,6.10
2023-05-14T13:46:11.465Z,5.80
2023-05-14T13:48:39.903Z,5.88
2023-05-14T13:51:08.593Z,5.75
2023-05-14T13:53:38.393Z,5.95
2023-05-14T13:56:08.618Z,6.57
2023-05-14T13:58:37.080Z,5.93
2023-05-14T14:01:05.841Z,4.90
2023-05-14T14:03:34.382Z,5.22
2023-05-14T14:06:02.814Z,6.25
2023-05-14T14:08:31.273Z,6.37
2023-05-14T14:11:01.457Z,4.43
2023-05-14T14:13:30.283Z,4.50
2023-05-14T14:15:58.802Z,4.40
2023-05-14T14:18:27.684Z,6.00
2023-05-14T14:20:56.387Z,4.20
2023-05-14T14:23:24.841Z,4.80
2023-05-14T14:25:53.262Z,4.72
2023-05-14T14:28:23.147Z,5.25
2023-05-14T14:30:52.063Z,5.47
2023-05-14T14:33:20.494Z,5.83
2023-05-14T14:35:48.935Z,4.40
2023-05-14T14:38:17.529Z,5.85
2023-05-14T14:40:46.178Z,4.43
2023-05-14T14:43:14.659Z,4.70
2023-05-14T14:45:48.169Z,3.90
2023-05-14T14:48:26.864Z,5.78
2023-05-14T14:50:56.281Z,10.55
2023-05-14T14:53:26.020Z,5.90
2023-05-14T14:55:55.268Z,5.10
2023-05-14T14:58:23.919Z,4.13
2023-05-14T15:00:56.803Z,4.75
2023-05-14T15:03:26.267Z,4.90
2023-05-14T15:05:54.849Z,5.30
2023-05-14T15:08:27.960Z,4.78
2023-05-14T15:10:57.176Z,5.03
2023-05-14T15:13:26.955Z,5.40
2023-05-14T15:15:56.807Z,4.82
2023-05-14T15:18:25.959Z,5.78
2023-05-14T15:20:54.560Z,5.25
2023-05-14T15:23:23.021Z,6.90
2023-05-14T15:25:52.087Z,5.57
2023-05-14T15:28:20.894Z,5.60
2023-05-14T15:30:49.877Z,5.78
2023-05-14T15:33:19.890Z,5.10
2023-05-14T15:35:48.413Z,12.73
2023-05-14T15:38:16.882Z,4.93
2023-05-14T15:40:45.417Z,4.75
2023-05-14T15:43:13.940Z,4.70
2023-05-14T15:45:44.083Z,4.82
2023-05-14T15:48:12.576Z,6.70
2023-05-14T15:50:42.414Z,5.18
2023-05-14T15:53:11.043Z,6.88
2023-05-14T15:55:39.521Z,5.85
2023-05-14T15:58:08.025Z,6.07
2023-05-14T16:00:39.389Z,8.60
2023-05-14T16:03:07.930Z,5.60
2023-05-14T16:05:36.575Z,7.43
2023-05-14T16:08:07.253Z,7.80
2023-05-14T16:10:35.689Z,6.18
2023-05-14T16:13:04.160Z,5.27
2023-05-14T16:15:32.646Z,7.25
2023-05-14T16:18:02.168Z,4.95
2023-05-14T16:20:30.701Z,6.10
2023-05-14T16:22:59.116Z,5.18
2023-05-14T16:25:30.071Z,6.73
2023-05-14T16:27:58.544Z,4.70
2023-05-14T16:30:27.210Z,4.50
2023-05-14T16:32:55.743Z,5.60
2023-05-14T16:35:24.284Z,4.97
2023-05-14T16:37:52.790Z,4.40
2023-05-14T16:40:23.367Z,4.45
2023-05-14T16:42:53.463Z,6.88
2023-05-14T16:45:22.117Z,4.80
2023-05-14T16:47:50.771Z,9.77
2023-05-14T16:50:19.425Z,4.30
2023-05-14T16:52:47.884Z,6.28
2023-05-14T16:55:16.694Z,4.45
2023-05-14T16:57:45.123Z,4.65
2023-05-14T17:00:16.701Z,4.68
2023-05-14T17:02:49.026Z,6.63
2023-05-14T17:05:17.791Z,5.18
2023-05-14T17:07:46.268Z,4.05
2023-05-14T17:10:14.725Z,5.38
2023-05-14T17:12:43.491Z,5.10
2023-05-14T17:15:14.252Z,5.70
2023-05-14T17:17:42.990Z,4.40
2023-05-14T17:20:14.117Z,4.85
2023-05-14T17:22:44.676Z,4.45
2023-05-14T17:25:13.264Z,5.00
2023-05-14T17:27:41.974Z,4.47
2023-05-14T17:30:11.596Z,4.40
2023-05-14T17:32:41.783Z,6.55
2023-05-14T17:35:11.701Z,4.55
2023-05-14T17:37:42.989Z,5.20
2023-05-14T17:40:13.259Z,4.60
2023-05-14T17:42:41.978Z,5.40
2023-05-14T17:45:11.431Z,5.03
2023-05-14T17:47:41.397Z,5.25
2023-05-14T17:50:11.255Z,4.47
2023-05-14T17:52:42.149Z,4.10
2023-05-14T17:55:11.043Z,4.90
2023-05-14T17:57:39.713Z,4.78
2023-05-14T18:00:09.833Z,8.52
2023-05-14T18:02:38.304Z,5.40
2023-05-14T18:05:09.472Z,4.50
2023-05-14T18:07:37.907Z,4.68
2023-05-14T18:10:08.266Z,4.57
2023-05-14T18:12:36.737Z,5.03
2023-05-14T18:15:06.542Z,5.65
2023-05-14T18:17:35.002Z,5.07
2023-05-14T18:20:03.615Z,4.32
2023-05-14T18:22:33.426Z,6.25
2023-05-14T18:25:01.832Z,5.43
2023-05-14T18:27:30.465Z,5.00
2023-05-14T18:29:58.879Z,7.70
2023-05-14T18:32:27.585Z,5.00
2023-05-14T18:34:56.029Z,32.92
2023-05-14T18:37:24.464Z,6.13
2023-05-14T18:39:54.881Z,6.40
2023-05-14T18:42:23.304Z,4.37
2023-05-14T18:44:51.684Z,4.38
2023-05-14T18:47:20.137Z,4.88
2023-05-14T18:49:50.582Z,9.70
2023-05-14T18:52:19.037Z,5.32
2023-05-14T18:54:47.439Z,5.30
2023-05-14T18:57:17.364Z,5.60
2023-05-14T18:59:45.826Z,6.47
2023-05-14T19:02:14.442Z,5.32
2023-05-14T19:04:51.870Z,5.13
2023-05-14T19:07:21.539Z,5.90
2023-05-14T19:09:50.137Z,4.82
2023-05-14T19:12:20.002Z,6.32
2023-05-14T19:14:48.540Z,6.47
2023-05-14T19:17:18.611Z,7.35
2023-05-14T19:19:48.925Z,6.70
2023-05-14T19:22:17.499Z,4.15
2023-05-14T19:24:46.134Z,6.15
2023-05-14T19:27:16.287Z,7.32
2023-05-14T19:29:46.446Z,6.40
2023-05-14T19:32:14.905Z,6.33
2023-05-14T19:34:43.352Z,4.80
2023-05-14T19:37:12.679Z,5.70
2023-05-14T19:39:41.115Z,5.45
2023-05-14T19:42:09.569Z,6.32
2023-05-14T19:44:37.975Z,7.30
2023-05-14T19:47:08.784Z,5.97
2023-05-14T19:49:37.360Z,5.40
2023-05-14T19:52:06.601Z,9.52
2023-05-14T19:54:35.048Z,6.03
2023-05-14T19:57:03.506Z,7.03
2023-05-14T19:59:32.155Z,13.98
2023-05-14T20:02:01.273Z,10.93
2023-05-14T20:04:31.367Z,11.07
2023-05-14T20:06:59.935Z,8.10
2023-05-14T20:09:28.425Z,11.33
2023-05-14T20:11:56.872Z,8.02
2023-05-14T20:14:25.418Z,9.48
2023-05-14T20:16:53.940Z,6.32
2023-05-14T20:19:22.614Z,6.90
2023-05-14T20:21:52.796Z,7.70
2023-05-14T20:24:21.222Z,7.05
2023-05-14T20:26:49.669Z,6.38
2023-05-14T20:29:18.122Z,6.20
2023-05-14T20:31:46.590Z,6.15
2023-05-14T20:34:14.993Z,6.63
2023-05-14T20:36:43.418Z,7.28
2023-05-14T20:39:14.925Z,7.28
2023-05-14T20:41:45.557Z,5.63
2023-05-14T20:44:13.973Z,6.55
2023-05-14T20:46:42.423Z,5.53
2023-05-14T20:49:10.865Z,9.00
2023-05-14T20:51:39.339Z,7.63
2023-05-14T20:54:07.878Z,5.63
2023-05-14T20:56:37.989Z,5.88
2023-05-14T20:59:06.528Z,5.57
2023-05-14T21:01:34.993Z,6.38
2023-05-14T21:04:03.646Z,7.00
2023-05-14T21:06:32.262Z,5.22
2023-05-14T21:09:00.701Z,11.52
2023-05-14T21:11:29.147Z,10.57
2023-05-14T21:13:59.373Z,7.55
2023-05-14T21:16:27.817Z,5.43
2023-05-14T21:18:56.531Z,5.90
2023-05-14T21:21:25.994Z,8.68
2023-05-14T21:23:54.429Z,6.77
2023-05-14T21:26:23.141Z,8.82
2023-05-14T21:28:51.553Z,8.20
2023-05-14T21:31:21.392Z,9.25
2023-05-14T21:33:49.838Z,6.65
2023-05-14T21:36:18.677Z,8.67
2023-05-14T21:38:47.125Z,5.90
2023-05-14T21:41:15.597Z,7.80
2023-05-14T21:43:45.221Z,6.38
2023-05-14T21:46:13.660Z,8.80
2023-05-14T21:48:43.665Z,7.60
2023-05-14T21:51:12.376Z,5.15
2023-05-14T21:53:41.021Z,7.22
2023-05-14T21:56:09.527Z,8.15
2023-05-14T21:58:37.983Z,6.43
2023-05-14T22:01:06.754Z,8.38
2023-05-14T22:03:35.699Z,5.82
2023-05-14T22:06:06.712Z,11.25
2023-05-14T22:08:35.200Z,8.88
2023-05-14T22:11:03.906Z,6.57
2023-05-14T22:13:32.375Z,8.07
2023-05-14T22:16:09.201Z,7.22
2023-05-14T22:18:41.126Z,7.07
2023-05-14T22:21:11.000Z,10.25
2023-05-14T22:23:39.437Z,6.45
2023-05-14T22:26:07.929Z,6.83
2023-05-14T22:28:40.057Z,6.80
2023-05-14T22:31:08.498Z,6.10
2023-05-14T22:33:37.492Z,5.68
2023-05-14T22:36:07.460Z,6.05
2023-05-14T22:38:37.322Z,7.10
2023-05-14T22:41:05.831Z,11.70
2023-05-14T22:43:34.251Z,7.57
2023-05-14T22:46:03.004Z,7.25
2023-05-14T22:48:31.554Z,6.85
2023-05-14T22:50:59.976Z,6.13
2023-05-14T22:53:28.443Z,6.22
2023-05-14T22:55:58.867Z,6.28
2023-05-14T22:58:27.294Z,7.57
2023-05-14T23:00:55.703Z,7.10
2023-05-14T23:03:24.156Z,6.40
2023-05-14T23:05:53.410Z,7.22
2023-05-14T23:08:22.138Z,7.13
2023-05-14T23:10:50.616Z,6.53
2023-05-14T23:13:20.601Z,8.35
2023-05-14T23:15:49.057Z,5.82
2023-05-14T23:18:17.664Z,5.88
2023-05-14T23:20:46.201Z,5.80
2023-05-14T23:23:14.630Z,8.25
2023-05-14T23:25:43.299Z,6.97
2023-05-14T23:28:12.834Z,6.40
2023-05-14T23:30:42.634Z,7.70
2023-05-14T23:33:11.348Z,12.23
2023-05-14T23:35:40.298Z,8.57
2023-05-14T23:38:09.173Z,6.93
2023-05-14T23:40:37.628Z,8.33
2023-05-14T23:43:06.132Z,7.50
2023-05-14T23:45:34.787Z,6.50
2023-05-14T23:48:05.307Z,11.82
2023-05-14T23:50:33.760Z,7.03
2023-05-14T23:53:02.399Z,7.97
2023-05-14T23:55:30.927Z,6.68
2023-05-14T23:57:59.417Z,7.15
